sensor_id;sensor_type;location;lat;lon;timestamp;pressure;altitude;pressure_sealevel;temperature;humidity
7802;BME280;3945;48.952;9.506;2022-10-16T00:00:23;97833.00;;;15.66;100.00
7802;BME280;3945;48.952;9.506;2022-10-16T00:02:51;97831.41;;;15.65;100.00
7802;BME280;3945;48.952;9.506;2022-10-16T00:05:17;97845.09;;;15.63;100.00
7802;BME280;3945;48.952;9.506;2022-10-16T00:07:44;97853.44;;;15.62;100.00
7802;BME280;3945;48.952;9.506;2022-10-16T00:10:10;97856.13;;;15.62;100.00
7802;BME280;3945;48.952;9.506;2022-10-16T00:12:36;97861.47;;;15.62;100.00
7802;BME280;3945;48.952;9.506;2022-10-16T00:15:03;97854.78;;;15.59;100.00
7802;BME280;3945;48.952;9.506;2022-10-16T00:17:29;97859.06;;;15.60;100.00
7802;BME280;3945;48.952;9.506;2022-10-16T00:19:57;97851.81;;;15.61;100.00
7802;BME280;3945;48.952;9.506;2022-10-16T00:22:23;97850.19;;;15.65;100.00
7802;BME280;3945;48.952;9.506;2022-10-16T00:24:50;97841.59;;;15.68;100.00
7802;BME280;3945;48.952;9.506;2022-10-16T00:27:16;97844.00;;;15.70;100.00
7802;BME280;3945;48.952;9.506;2022-10-16T00:29:43;97841.59;;;15.68;100.00
7802;BME280;3945;48.952;9.506;2022-10-16T00:32:09;97847.50;;;15.70;100.00
7802;BME280;3945;48.952;9.506;2022-10-16T00:34:35;97848.03;;;15.67;100.00
7802;BME280;3945;48.952;9.506;2022-10-16T00:37:03;97837.56;;;15.66;100.00
7802;BME280;3945;48.952;9.506;2022-10-16T00:39:30;97832.47;;;15.64;100.00
7802;BME280;3945;48.952;9.506;2022-10-16T00:41:56;97831.13;;;15.67;100.00
7802;BME280;3945;48.952;9.506;2022-10-16T00:44:42;97825.78;;;15.67;100.00
7802;BME280;3945;48.952;9.506;2022-10-16T00:47:09;97832.22;;;15.66;100.00
7802;BME280;3945;48.952;9.506;2022-10-16T00:49:35;97846.44;;;15.66;100.00
7802;BME280;3945;48.952;9.506;2022-10-16T00:52:03;97847.50;;;15.65;100.00
7802;BME280;3945;48.952;9.506;2022-10-16T00:54:31;97852.88;;;15.65;100.00
7802;BME280;3945;48.952;9.506;2022-10-16T00:56:59;97858.50;;;15.69;100.00
7802;BME280;3945;48.952;9.506;2022-10-16T00:59:27;97864.41;;;15.66;100.00
7802;BME280;3945;48.952;9.506;2022-10-16T01:01:54;97857.44;;;15.65;100.00
7802;BME280;3945;48.952;9.506;2022-10-16T01:04:21;97857.16;;;15.66;100.00
7802;BME280;3945;48.952;9.506;2022-10-16T01:06:49;97863.34;;;15.67;100.00
7802;BME280;3945;48.952;9.506;2022-10-16T01:09:23;97864.13;;;15.67;100.00
7802;BME280;3945;48.952;9.506;2022-10-16T01:11:54;97867.09;;;15.66;100.00
7802;BME280;3945;48.952;9.506;2022-10-16T01:14:26;97858.22;;;15.65;100.00
7802;BME280;3945;48.952;9.506;2022-10-16T01:16:55;97855.81;;;15.63;100.00
7802;BME280;3945;48.952;9.506;2022-10-16T01:19:26;97860.41;;;15.63;100.00
7802;BME280;3945;48.952;9.506;2022-10-16T01:21:56;97871.41;;;15.61;100.00
7802;BME280;3945;48.952;9.506;2022-10-16T01:24:30;97874.34;;;15.60;100.00
7802;BME280;3945;48.952;9.506;2022-10-16T01:27:08;97871.13;;;15.58;100.00
7802;BME280;3945;48.952;9.506;2022-10-16T01:29:37;97867.13;;;15.60;100.00
7802;BME280;3945;48.952;9.506;2022-10-16T01:32:07;97863.34;;;15.61;100.00
7802;BME280;3945;48.952;9.506;2022-10-16T01:34:37;97864.16;;;15.62;100.00
7802;BME280;3945;48.952;9.506;2022-10-16T01:37:05;97859.31;;;15.64;100.00
7802;BME280;3945;48.952;9.506;2022-10-16T01:39:33;97864.41;;;15.66;100.00
7802;BME280;3945;48.952;9.506;2022-10-16T01:42:03;97851.00;;;15.66;100.00
7802;BME280;3945;48.952;9.506;2022-10-16T01:44:32;97853.41;;;15.67;100.00
7802;BME280;3945;48.952;9.506;2022-10-16T01:47:01;97857.44;;;15.65;100.00
7802;BME280;3945;48.952;9.506;2022-10-16T01:49:30;97858.22;;;15.65;100.00
7802;BME280;3945;48.952;9.506;2022-10-16T01:51:58;97862.78;;;15.65;100.00
7802;BME280;3945;48.952;9.506;2022-10-16T01:54:26;97864.09;;;15.72;100.00
7802;BME280;3945;48.952;9.506;2022-10-16T01:56:54;97863.34;;;15.67;100.00
7802;BME280;3945;48.952;9.506;2022-10-16T01:59:21;97868.47;;;15.63;100.00
7802;BME280;3945;48.952;9.506;2022-10-16T02:01:51;97858.25;;;15.60;100.00
7802;BME280;3945;48.952;9.506;2022-10-16T02:04:19;97859.59;;;15.57;100.00
7802;BME280;3945;48.952;9.506;2022-10-16T02:06:46;97863.09;;;15.58;100.00
7802;BME280;3945;48.952;9.506;2022-10-16T02:09:12;97859.59;;;15.57;100.00
7802;BME280;3945;48.952;9.506;2022-10-16T02:11:40;97861.47;;;15.57;100.00
7802;BME280;3945;48.952;9.506;2022-10-16T02:14:07;97854.81;;;15.54;100.00
7802;BME280;3945;48.952;9.506;2022-10-16T02:16:34;97855.59;;;15.55;100.00
7802;BME280;3945;48.952;9.506;2022-10-16T02:19:02;97842.19;;;15.55;100.00
7802;BME280;3945;48.952;9.506;2022-10-16T02:21:29;97847.81;;;15.53;100.00
7802;BME280;3945;48.952;9.506;2022-10-16T02:24:01;97849.72;;;15.53;100.00
7802;BME280;3945;48.952;9.506;2022-10-16T02:26:28;97851.00;;;15.50;100.00
7802;BME280;3945;48.952;9.506;2022-10-16T02:28:58;97852.63;;;15.51;100.00
7802;BME280;3945;48.952;9.506;2022-10-16T02:31:26;97853.44;;;15.52;100.00
7802;BME280;3945;48.952;9.506;2022-10-16T02:33:54;97853.19;;;15.53;100.00
7802;BME280;3945;48.952;9.506;2022-10-16T02:36:22;97848.06;;;15.52;100.00
7802;BME280;3945;48.952;9.506;2022-10-16T02:38:49;97847.81;;;15.48;100.00
7802;BME280;3945;48.952;9.506;2022-10-16T02:41:15;97866.88;;;15.47;100.00
7802;BME280;3945;48.952;9.506;2022-10-16T02:43:42;97874.09;;;15.46;100.00
7802;BME280;3945;48.952;9.506;2022-10-16T02:46:08;97871.66;;;15.50;100.00
7802;BME280;3945;48.952;9.506;2022-10-16T02:48:35;97873.03;;;15.47;100.00
7802;BME280;3945;48.952;9.506;2022-10-16T02:51:01;97863.91;;;15.48;100.00
7802;BME280;3945;48.952;9.506;2022-10-16T02:53:29;97850.50;;;15.48;100.00
7802;BME280;3945;48.952;9.506;2022-10-16T02:55:55;97864.44;;;15.50;100.00
7802;BME280;3945;48.952;9.506;2022-10-16T02:58:22;97855.88;;;15.48;100.00
7802;BME280;3945;48.952;9.506;2022-10-16T03:00:48;97861.25;;;15.48;100.00
7802;BME280;3945;48.952;9.506;2022-10-16T03:03:15;97855.56;;;15.50;100.00
7802;BME280;3945;48.952;9.506;2022-10-16T03:05:42;97851.59;;;15.47;100.00
7802;BME280;3945;48.952;9.506;2022-10-16T03:08:10;97857.22;;;15.46;100.00
7802;BME280;3945;48.952;9.506;2022-10-16T03:10:38;97858.00;;;15.46;100.00
7802;BME280;3945;48.952;9.506;2022-10-16T03:13:04;97860.69;;;15.46;100.00
7802;BME280;3945;48.952;9.506;2022-10-16T03:15:31;97850.25;;;15.45;100.00
7802;BME280;3945;48.952;9.506;2022-10-16T03:17:57;97859.91;;;15.46;100.00
7802;BME280;3945;48.952;9.506;2022-10-16T03:20:23;97861.78;;;15.45;100.00
7802;BME280;3945;48.952;9.506;2022-10-16T03:22:50;97866.59;;;15.43;100.00
7802;BME280;3945;48.952;9.506;2022-10-16T03:25:16;97861.50;;;15.42;100.00
7802;BME280;3945;48.952;9.506;2022-10-16T03:27:44;97869.53;;;15.42;100.00
7802;BME280;3945;48.952;9.506;2022-10-16T03:30:11;97867.97;;;15.41;100.00
7802;BME280;3945;48.952;9.506;2022-10-16T03:32:37;97863.41;;;15.41;100.00
7802;BME280;3945;48.952;9.506;2022-10-16T03:35:04;97869.84;;;15.40;100.00
7802;BME280;3945;48.952;9.506;2022-10-16T03:37:30;97862.88;;;15.39;100.00
7802;BME280;3945;48.952;9.506;2022-10-16T03:39:57;97863.41;;;15.41;100.00
7802;BME280;3945;48.952;9.506;2022-10-16T03:42:24;97866.63;;;15.38;100.00
7802;BME280;3945;48.952;9.506;2022-10-16T03:44:52;97854.56;;;15.36;100.00
7802;BME280;3945;48.952;9.506;2022-10-16T03:47:18;97868.78;;;15.31;100.00
7802;BME280;3945;48.952;9.506;2022-10-16T03:49:46;97874.41;;;15.30;100.00
7802;BME280;3945;48.952;9.506;2022-10-16T03:52:13;97869.84;;;15.30;100.00
7802;BME280;3945;48.952;9.506;2022-10-16T03:54:39;97877.09;;;15.30;100.00
7802;BME280;3945;48.952;9.506;2022-10-16T03:57:06;97875.78;;;15.27;100.00
7802;BME280;3945;48.952;9.506;2022-10-16T03:59:33;97874.44;;;15.24;100.00
7802;BME280;3945;48.952;9.506;2022-10-16T04:02:01;97867.75;;;15.27;100.00
7802;BME280;3945;48.952;9.506;2022-10-16T04:04:27;97871.75;;;15.24;100.00
7802;BME280;3945;48.952;9.506;2022-10-16T04:06:53;97871.22;;;15.22;100.00
7802;BME280;3945;48.952;9.506;2022-10-16T04:09:20;97870.69;;;15.20;100.00
7802;BME280;3945;48.952;9.506;2022-10-16T04:11:46;97870.97;;;15.19;100.00
7802;BME280;3945;48.952;9.506;2022-10-16T04:14:12;97876.03;;;15.20;100.00
7802;BME280;3945;48.952;9.506;2022-10-16T04:16:39;97877.94;;;15.15;100.00
7802;BME280;3945;48.952;9.506;2022-10-16T04:19:07;97879.00;;;15.14;100.00
7802;BME280;3945;48.952;9.506;2022-10-16T04:21:33;97876.06;;;15.10;100.00
7802;BME280;3945;48.952;9.506;2022-10-16T04:23:59;97882.50;;;15.09;100.00
7802;BME280;3945;48.952;9.506;2022-10-16T04:26:26;97886.53;;;15.07;100.00
7802;BME280;3945;48.952;9.506;2022-10-16T04:28:52;97890.00;;;15.07;100.00
7802;BME280;3945;48.952;9.506;2022-10-16T04:31:19;97891.06;;;15.06;100.00
7802;BME280;3945;48.952;9.506;2022-10-16T04:33:45;97894.56;;;15.07;100.00
7802;BME280;3945;48.952;9.506;2022-10-16T04:36:13;97892.94;;;15.06;100.00
7802;BME280;3945;48.952;9.506;2022-10-16T04:38:39;97899.66;;;15.03;100.00
7802;BME280;3945;48.952;9.506;2022-10-16T04:41:06;97898.88;;;15.03;100.00
7802;BME280;3945;48.952;9.506;2022-10-16T04:43:32;97896.44;;;15.01;100.00
7802;BME280;3945;48.952;9.506;2022-10-16T04:45:59;97895.91;;;14.99;100.00
7802;BME280;3945;48.952;9.506;2022-10-16T04:48:25;97896.19;;;14.98;100.00
7802;BME280;3945;48.952;9.506;2022-10-16T04:50:52;97897.53;;;14.95;100.00
7802;BME280;3945;48.952;9.506;2022-10-16T04:53:20;97902.34;;;14.93;100.00
7802;BME280;3945;48.952;9.506;2022-10-16T04:55:46;97907.19;;;14.91;100.00
7802;BME280;3945;48.952;9.506;2022-10-16T04:58:12;97907.97;;;14.92;100.00
7802;BME280;3945;48.952;9.506;2022-10-16T05:00:39;97909.06;;;14.91;100.00
7802;BME280;3945;48.952;9.506;2022-10-16T05:03:05;97910.13;;;14.90;100.00
7802;BME280;3945;48.952;9.506;2022-10-16T05:05:33;97900.47;;;14.89;100.00
7802;BME280;3945;48.952;9.506;2022-10-16T05:07:59;97905.84;;;14.89;100.00
7802;BME280;3945;48.952;9.506;2022-10-16T05:10:27;97917.63;;;14.88;100.00
7802;BME280;3945;48.952;9.506;2022-10-16T05:12:54;97919.25;;;14.89;100.00
7802;BME280;3945;48.952;9.506;2022-10-16T05:15:20;97922.19;;;14.87;100.00
7802;BME280;3945;48.952;9.506;2022-10-16T05:17:46;97926.47;;;14.88;100.00
7802;BME280;3945;48.952;9.506;2022-10-16T05:20:13;97923.25;;;14.86;100.00
7802;BME280;3945;48.952;9.506;2022-10-16T05:22:39;97926.22;;;14.90;100.00
7802;BME280;3945;48.952;9.506;2022-10-16T05:25:06;97933.69;;;14.93;100.00
7802;BME280;3945;48.952;9.506;2022-10-16T05:27:33;97925.13;;;14.85;100.00
7802;BME280;3945;48.952;9.506;2022-10-16T05:30:00;97921.38;;;14.87;100.00
7802;BME280;3945;48.952;9.506;2022-10-16T05:32:26;97919.75;;;14.85;100.00
7802;BME280;3945;48.952;9.506;2022-10-16T05:34:52;97917.34;;;14.84;100.00
7802;BME280;3945;48.952;9.506;2022-10-16T05:37:19;97908.25;;;14.85;100.00
7802;BME280;3945;48.952;9.506;2022-10-16T05:39:45;97913.91;;;14.83;100.00
7802;BME280;3945;48.952;9.506;2022-10-16T05:42:12;97923.50;;;14.84;100.00
7802;BME280;3945;48.952;9.506;2022-10-16T05:44:39;97922.44;;;14.85;100.00
7802;BME280;3945;48.952;9.506;2022-10-16T05:47:06;97925.13;;;14.85;100.00
7802;BME280;3945;48.952;9.506;2022-10-16T05:49:32;97923.25;;;14.86;100.00
7802;BME280;3945;48.952;9.506;2022-10-16T05:51:59;97919.50;;;14.87;100.00
7802;BME280;3945;48.952;9.506;2022-10-16T05:54:25;97921.66;;;14.90;100.00
7802;BME280;3945;48.952;9.506;2022-10-16T05:56:51;97939.88;;;14.88;100.00
7802;BME280;3945;48.952;9.506;2022-10-16T05:59:18;97941.75;;;14.88;100.00
7802;BME280;3945;48.952;9.506;2022-10-16T06:01:45;97947.09;;;14.88;100.00
7802;BME280;3945;48.952;9.506;2022-10-16T06:04:12;97939.88;;;14.88;100.00
7802;BME280;3945;48.952;9.506;2022-10-16T06:06:38;97938.53;;;14.91;100.00
7802;BME280;3945;48.952;9.506;2022-10-16T06:09:04;97947.38;;;14.91;100.00
7802;BME280;3945;48.952;9.506;2022-10-16T06:11:32;97950.84;;;14.92;100.00
7802;BME280;3945;48.952;9.506;2022-10-16T06:13:59;97955.69;;;14.95;100.00
7802;BME280;3945;48.952;9.506;2022-10-16T06:16:26;97958.91;;;14.97;100.00
7802;BME280;3945;48.952;9.506;2022-10-16T06:18:55;97957.53;;;14.99;100.00
7802;BME280;3945;48.952;9.506;2022-10-16T06:21:22;97953.00;;;15.00;100.00
7802;BME280;3945;48.952;9.506;2022-10-16T06:23:50;97957.53;;;14.99;100.00
7802;BME280;3945;48.952;9.506;2022-10-16T06:26:18;97969.88;;;15.00;100.00
7802;BME280;3945;48.952;9.506;2022-10-16T06:28:44;97968.00;;;15.01;100.00
7802;BME280;3945;48.952;9.506;2022-10-16T06:31:11;97973.91;;;15.03;100.00
7802;BME280;3945;48.952;9.506;2022-10-16T06:33:38;97981.69;;;15.04;100.00
7802;BME280;3945;48.952;9.506;2022-10-16T06:36:07;97970.69;;;15.06;100.00
7802;BME280;3945;48.952;9.506;2022-10-16T06:38:34;97981.13;;;15.07;100.00
7802;BME280;3945;48.952;9.506;2022-10-16T06:41:00;97970.69;;;15.11;100.00
7802;BME280;3945;48.952;9.506;2022-10-16T06:43:28;97973.13;;;15.12;100.00
7802;BME280;3945;48.952;9.506;2022-10-16T06:45:57;97968.25;;;15.14;100.00
7802;BME280;3945;48.952;9.506;2022-10-16T06:48:24;97965.31;;;15.16;100.00
7802;BME280;3945;48.952;9.506;2022-10-16T06:50:55;97967.75;;;15.17;100.00
7802;BME280;3945;48.952;9.506;2022-10-16T06:53:22;97977.91;;;15.20;100.00
7802;BME280;3945;48.952;9.506;2022-10-16T06:55:49;97980.59;;;15.26;100.00
7802;BME280;3945;48.952;9.506;2022-10-16T06:58:15;97978.19;;;15.29;100.00
7802;BME280;3945;48.952;9.506;2022-10-16T07:00:41;97983.25;;;15.36;100.00
7802;BME280;3945;48.952;9.506;2022-10-16T07:03:08;97993.19;;;15.40;100.00
7802;BME280;3945;48.952;9.506;2022-10-16T07:05:36;97995.31;;;15.43;100.00
7802;BME280;3945;48.952;9.506;2022-10-16T07:08:03;97993.19;;;15.45;100.00
7802;BME280;3945;48.952;9.506;2022-10-16T07:10:31;98014.63;;;15.50;100.00
7802;BME280;3945;48.952;9.506;2022-10-16T07:12:58;98023.00;;;15.54;100.00
7802;BME280;3945;48.952;9.506;2022-10-16T07:15:24;98022.44;;;15.57;100.00
7802;BME280;3945;48.952;9.506;2022-10-16T07:17:51;98021.91;;;15.60;100.00
7802;BME280;3945;48.952;9.506;2022-10-16T07:20:17;98014.91;;;15.64;100.00
7802;BME280;3945;48.952;9.506;2022-10-16T07:22:44;98025.66;;;15.69;100.00
7802;BME280;3945;48.952;9.506;2022-10-16T07:25:10;98030.47;;;15.77;100.00
7802;BME280;3945;48.952;9.506;2022-10-16T07:27:38;98030.19;;;15.84;100.00
7802;BME280;3945;48.952;9.506;2022-10-16T07:30:05;98033.09;;;15.92;100.00
7802;BME280;3945;48.952;9.506;2022-10-16T07:32:31;98044.66;;;15.98;100.00
7802;BME280;3945;48.952;9.506;2022-10-16T07:34:58;98043.28;;;16.06;100.00
7802;BME280;3945;48.952;9.506;2022-10-16T07:37:24;98040.31;;;16.12;100.00
7802;BME280;3945;48.952;9.506;2022-10-16T07:39:50;98041.63;;;16.15;100.00
7802;BME280;3945;48.952;9.506;2022-10-16T07:42:17;98045.66;;;16.17;100.00
7802;BME280;3945;48.952;9.506;2022-10-16T07:44:46;98047.25;;;16.23;100.00
7802;BME280;3945;48.952;9.506;2022-10-16T07:47:12;98051.53;;;16.24;100.00
7802;BME280;3945;48.952;9.506;2022-10-16T07:49:39;98054.50;;;16.28;100.00
7802;BME280;3945;48.952;9.506;2022-10-16T07:52:05;98060.91;;;16.32;100.00
7802;BME280;3945;48.952;9.506;2022-10-16T07:54:31;98066.00;;;16.33;100.00
7802;BME280;3945;48.952;9.506;2022-10-16T07:56:58;98068.97;;;16.32;100.00
7802;BME280;3945;48.952;9.506;2022-10-16T07:59:24;98076.22;;;16.31;100.00
7802;BME280;3945;48.952;9.506;2022-10-16T08:01:52;98077.03;;;16.32;100.00
7802;BME280;3945;48.952;9.506;2022-10-16T08:04:18;98070.03;;;16.31;100.00
7802;BME280;3945;48.952;9.506;2022-10-16T08:06:44;98076.22;;;16.31;100.00
7802;BME280;3945;48.952;9.506;2022-10-16T08:09:11;98070.03;;;16.31;100.00
7802;BME280;3945;48.952;9.506;2022-10-16T08:11:37;98080.53;;;16.32;100.00
7802;BME280;3945;48.952;9.506;2022-10-16T08:14:03;98077.25;;;16.35;100.00
7802;BME280;3945;48.952;9.506;2022-10-16T08:16:30;98082.63;;;16.40;100.00
7802;BME280;3945;48.952;9.506;2022-10-16T08:18:58;98078.03;;;16.46;100.00
7802;BME280;3945;48.952;9.506;2022-10-16T08:21:24;98075.31;;;16.51;100.00
7802;BME280;3945;48.952;9.506;2022-10-16T08:23:51;98072.06;;;16.59;100.00
7802;BME280;3945;48.952;9.506;2022-10-16T08:26:17;98081.22;;;16.68;100.00
7802;BME280;3945;48.952;9.506;2022-10-16T08:28:44;98079.25;;;16.79;100.00
7802;BME280;3945;48.952;9.506;2022-10-16T08:31:11;98083.78;;;16.89;100.00
7802;BME280;3945;48.952;9.506;2022-10-16T08:33:38;98078.06;;;17.00;100.00
7802;BME280;3945;48.952;9.506;2022-10-16T08:36:06;98081.50;;;17.11;100.00
7802;BME280;3945;48.952;9.506;2022-10-16T08:38:33;98084.94;;;17.22;100.00
7802;BME280;3945;48.952;9.506;2022-10-16T08:41:02;98079.72;;;17.35;100.00
7802;BME280;3945;48.952;9.506;2022-10-16T08:43:33;98076.66;;;17.47;100.00
7802;BME280;3945;48.952;9.506;2022-10-16T08:46:16;98081.41;;;17.60;100.00
7802;BME280;3945;48.952;9.506;2022-10-16T08:48:46;98094.53;;;17.72;100.00
7802;BME280;3945;48.952;9.506;2022-10-16T08:51:17;98096.31;;;17.81;100.00
7802;BME280;3945;48.952;9.506;2022-10-16T08:53:45;98099.97;;;17.95;100.00
7802;BME280;3945;48.952;9.506;2022-10-16T08:56:12;98101.47;;;18.07;100.00
7802;BME280;3945;48.952;9.506;2022-10-16T08:58:38;98102.97;;;18.18;100.00
7802;BME280;3945;48.952;9.506;2022-10-16T09:01:11;98108.19;;;18.33;100.00
7802;BME280;3945;48.952;9.506;2022-10-16T09:03:42;98113.94;;;18.50;100.00
7802;BME280;3945;48.952;9.506;2022-10-16T09:06:17;98107.38;;;18.61;100.00
7802;BME280;3945;48.952;9.506;2022-10-16T09:08:47;98106.72;;;18.69;100.00
7802;BME280;3945;48.952;9.506;2022-10-16T09:11:18;98108.25;;;18.76;100.00
7802;BME280;3945;48.952;9.506;2022-10-16T09:13:50;98108.19;;;18.81;100.00
7802;BME280;3945;48.952;9.506;2022-10-16T09:16:18;98110.31;;;18.84;100.00
7802;BME280;3945;48.952;9.506;2022-10-16T09:18:48;98090.91;;;18.82;100.00
7802;BME280;3945;48.952;9.506;2022-10-16T09:21:19;98111.66;;;18.86;100.00
7802;BME280;3945;48.952;9.506;2022-10-16T09:23:47;98120.31;;;18.83;99.75
7802;BME280;3945;48.952;9.506;2022-10-16T09:26:14;98110.03;;;18.85;99.49
7802;BME280;3945;48.952;9.506;2022-10-16T09:28:43;98128.31;;;18.88;100.00
7802;BME280;3945;48.952;9.506;2022-10-16T09:31:12;98127.84;;;18.86;100.00
7802;BME280;3945;48.952;9.506;2022-10-16T09:33:39;98115.97;;;18.87;100.00
7802;BME280;3945;48.952;9.506;2022-10-16T09:36:07;98120.22;;;18.88;100.00
7802;BME280;3945;48.952;9.506;2022-10-16T09:38:35;98129.88;;;18.94;100.00
7802;BME280;3945;48.952;9.506;2022-10-16T09:41:03;98123.31;;;19.00;100.00
7802;BME280;3945;48.952;9.506;2022-10-16T09:43:39;98130.19;;;19.11;100.00
7802;BME280;3945;48.952;9.506;2022-10-16T09:46:07;98134.34;;;19.23;99.86
7802;BME280;3945;48.952;9.506;2022-10-16T09:48:36;98139.22;;;19.39;98.17
7802;BME280;3945;48.952;9.506;2022-10-16T09:51:03;98139.25;;;19.58;98.03
7802;BME280;3945;48.952;9.506;2022-10-16T09:53:41;98139.22;;;19.77;97.32
7802;BME280;3945;48.952;9.506;2022-10-16T09:56:09;98142.59;;;20.01;95.66
7802;BME280;3945;48.952;9.506;2022-10-16T09:58:41;98140.34;;;20.22;93.64
7802;BME280;3945;48.952;9.506;2022-10-16T10:01:11;98142.41;;;20.44;89.32
7802;BME280;3945;48.952;9.506;2022-10-16T10:03:39;98141.78;;;20.60;87.92
7802;BME280;3945;48.952;9.506;2022-10-16T10:06:15;98143.91;;;20.77;79.55
7802;BME280;3945;48.952;9.506;2022-10-16T10:08:53;98150.91;;;20.92;78.07
7802;BME280;3945;48.952;9.506;2022-10-16T10:14:04;98155.50;;;21.05;77.70
7802;BME280;3945;48.952;9.506;2022-10-16T10:16:31;98159.53;;;21.21;75.57
7802;BME280;3945;48.952;9.506;2022-10-16T10:18:58;98156.78;;;21.35;74.55
7802;BME280;3945;48.952;9.506;2022-10-16T10:21:24;98158.06;;;21.51;76.14
7802;BME280;3945;48.952;9.506;2022-10-16T10:23:56;98162.44;;;21.61;74.24
7802;BME280;3945;48.952;9.506;2022-10-16T10:26:23;98164.38;;;21.69;72.91
7802;BME280;3945;48.952;9.506;2022-10-16T10:28:54;98163.00;;;21.71;73.73
7802;BME280;3945;48.952;9.506;2022-10-16T10:31:25;98167.97;;;21.78;73.37
7802;BME280;3945;48.952;9.506;2022-10-16T10:33:54;98166.44;;;21.86;74.27
7802;BME280;3945;48.952;9.506;2022-10-16T10:36:25;98176.59;;;21.80;70.14
7802;BME280;3945;48.952;9.506;2022-10-16T10:38:56;98174.31;;;21.73;71.94
7802;BME280;3945;48.952;9.506;2022-10-16T10:41:27;98165.91;;;21.61;73.56
7802;BME280;3945;48.952;9.506;2022-10-16T10:44:01;98165.75;;;21.58;74.27
7802;BME280;3945;48.952;9.506;2022-10-16T10:46:32;98168.75;;;21.56;73.62
7802;BME280;3945;48.952;9.506;2022-10-16T10:49:06;98164.09;;;21.70;77.05
7802;BME280;3945;48.952;9.506;2022-10-16T10:51:38;98164.22;;;21.88;74.23
7802;BME280;3945;48.952;9.506;2022-10-16T10:54:10;98163.69;;;21.99;72.30
7802;BME280;3945;48.952;9.506;2022-10-16T10:56:44;98167.56;;;22.07;72.91
7802;BME280;3945;48.952;9.506;2022-10-16T10:59:23;98170.78;;;22.09;71.43
7802;BME280;3945;48.952;9.506;2022-10-16T11:01:55;98170.84;;;22.17;69.81
7802;BME280;3945;48.952;9.506;2022-10-16T11:04:27;98172.97;;;22.29;68.10
7802;BME280;3945;48.952;9.506;2022-10-16T11:06:56;98161.38;;;22.37;69.14
7802;BME280;3945;48.952;9.506;2022-10-16T11:09:27;98166.97;;;22.41;68.52
7802;BME280;3945;48.952;9.506;2022-10-16T11:11:58;98162.06;;;22.51;69.07
7802;BME280;3945;48.952;9.506;2022-10-16T11:14:26;98166.13;;;22.71;65.93
7802;BME280;3945;48.952;9.506;2022-10-16T11:16:56;98163.03;;;22.86;66.04
7802;BME280;3945;48.952;9.506;2022-10-16T11:19:26;98162.78;;;23.05;67.79
7802;BME280;3945;48.952;9.506;2022-10-16T11:21:55;98152.75;;;23.31;68.78
7802;BME280;3945;48.952;9.506;2022-10-16T11:24:30;98152.16;;;23.52;66.43
7802;BME280;3945;48.952;9.506;2022-10-16T11:27:01;98165.59;;;23.74;63.60
7802;BME280;3945;48.952;9.506;2022-10-16T11:29:30;98152.13;;;23.86;62.90
7802;BME280;3945;48.952;9.506;2022-10-16T11:31:59;98145.88;;;23.94;63.55
7802;BME280;3945;48.952;9.506;2022-10-16T11:34:28;98142.84;;;24.04;64.90
7802;BME280;3945;48.952;9.506;2022-10-16T11:36:56;98137.72;;;24.11;63.98
7802;BME280;3945;48.952;9.506;2022-10-16T11:39:25;98134.50;;;24.18;65.52
7802;BME280;3945;48.952;9.506;2022-10-16T11:41:54;98137.03;;;24.32;63.76
7802;BME280;3945;48.952;9.506;2022-10-16T11:44:31;98132.19;;;24.46;61.25
7802;BME280;3945;48.952;9.506;2022-10-16T11:47:01;98129.28;;;24.51;61.73
7802;BME280;3945;48.952;9.506;2022-10-16T11:49:33;98135.69;;;24.55;63.89
7802;BME280;3945;48.952;9.506;2022-10-16T11:52:01;98135.31;;;24.57;62.35
7802;BME280;3945;48.952;9.506;2022-10-16T11:54:32;98128.13;;;24.61;63.05
7802;BME280;3945;48.952;9.506;2022-10-16T11:57:07;98140.41;;;24.67;60.94
7802;BME280;3945;48.952;9.506;2022-10-16T11:59:36;98141.22;;;24.67;60.48
7802;BME280;3945;48.952;9.506;2022-10-16T12:02:15;98152.28;;;24.62;59.73
7802;BME280;3945;48.952;9.506;2022-10-16T12:04:47;98150.66;;;24.70;59.94
7802;BME280;3945;48.952;9.506;2022-10-16T12:07:17;98146.97;;;24.66;59.58
7802;BME280;3945;48.952;9.506;2022-10-16T12:09:45;98136.56;;;24.68;63.34
7802;BME280;3945;48.952;9.506;2022-10-16T12:12:25;98134.66;;;24.68;60.55
7802;BME280;3945;48.952;9.506;2022-10-16T12:14:59;98140.09;;;24.68;63.08
7802;BME280;3945;48.952;9.506;2022-10-16T12:17:27;98138.19;;;24.69;60.07
7802;BME280;3945;48.952;9.506;2022-10-16T12:20:00;98141.56;;;24.57;60.02
7802;BME280;3945;48.952;9.506;2022-10-16T12:22:27;98137.13;;;24.52;60.74
7802;BME280;3945;48.952;9.506;2022-10-16T12:24:54;98136.50;;;24.47;60.20
7802;BME280;3945;48.952;9.506;2022-10-16T12:27:22;98134.88;;;24.55;62.51
7802;BME280;3945;48.952;9.506;2022-10-16T12:29:54;98128.88;;;24.70;63.61
7802;BME280;3945;48.952;9.506;2022-10-16T12:32:24;98134.41;;;24.82;60.44
7802;BME280;3945;48.952;9.506;2022-10-16T12:34:53;98124.81;;;24.84;58.41
7802;BME280;3945;48.952;9.506;2022-10-16T12:37:21;98129.41;;;24.93;59.34
7802;BME280;3945;48.952;9.506;2022-10-16T12:39:49;98129.38;;;25.01;59.11
7802;BME280;3945;48.952;9.506;2022-10-16T12:42:20;98134.28;;;25.08;59.20
7802;BME280;3945;48.952;9.506;2022-10-16T12:44:47;98129.72;;;25.00;56.68
7802;BME280;3945;48.952;9.506;2022-10-16T12:47:20;98130.88;;;24.90;55.94
7802;BME280;3945;48.952;9.506;2022-10-16T12:49:48;98124.31;;;24.91;58.13
7802;BME280;3945;48.952;9.506;2022-10-16T12:52:25;98125.84;;;25.01;55.71
7802;BME280;3945;48.952;9.506;2022-10-16T12:54:52;98132.13;;;24.93;57.30
7802;BME280;3945;48.952;9.506;2022-10-16T12:57:26;98141.16;;;24.84;58.24
7802;BME280;3945;48.952;9.506;2022-10-16T12:59:59;98135.94;;;24.71;60.95
7802;BME280;3945;48.952;9.506;2022-10-16T13:05:20;98131.13;;;24.68;63.75
7802;BME280;3945;48.952;9.506;2022-10-16T13:07:52;98133.34;;;24.74;63.03
7802;BME280;3945;48.952;9.506;2022-10-16T13:10:23;98138.41;;;24.84;62.36
7802;BME280;3945;48.952;9.506;2022-10-16T13:12:58;98139.66;;;24.96;60.41
7802;BME280;3945;48.952;9.506;2022-10-16T13:15:34;98146.47;;;25.10;59.73
7802;BME280;3945;48.952;9.506;2022-10-16T13:18:06;98145.56;;;25.27;56.50
7802;BME280;3945;48.952;9.506;2022-10-16T13:20:42;98142.94;;;25.31;58.08
7802;BME280;3945;48.952;9.506;2022-10-16T13:23:13;98153.31;;;25.16;56.85
7802;BME280;3945;48.952;9.506;2022-10-16T13:25:45;98158.41;;;24.97;57.80